createdAt,value
2018-11-06T00:01:03.655Z,83.50
2018-11-06T00:03:37.608Z,97.77
2018-11-06T00:06:06.027Z,59.73
2018-11-06T00:08:34.432Z,61.37
2018-11-06T00:11:02.824Z,68.80
2018-11-06T00:13:31.236Z,95.53
2018-11-06T00:15:59.628Z,53.53
2018-11-06T00:18:28.236Z,41.40
2018-11-06T00:20:56.741Z,71.50
2018-11-06T00:23:25.151Z,60.53
2018-11-06T00:25:53.535Z,46.33
2018-11-06T00:28:21.964Z,40.30
2018-11-06T00:30:50.588Z,108.27
2018-11-06T00:33:19.071Z,98.90
2018-11-06T00:35:47.476Z,75.20
2018-11-06T00:38:15.899Z,58.63
2018-11-06T00:40:44.516Z,59.23
2018-11-06T00:43:13.015Z,45.63
2018-11-06T00:45:41.469Z,40.90
2018-11-06T00:48:10.084Z,47.53
2018-11-06T00:50:43.719Z,35.93
2018-11-06T00:53:12.421Z,54.73
2018-11-06T00:55:40.931Z,86.97
2018-11-06T00:58:09.453Z,47.13
2018-11-06T01:00:37.933Z,119.63
2018-11-06T01:03:06.329Z,84.97
2018-11-06T01:05:34.842Z,75.23
2018-11-06T01:08:03.231Z,39.53
2018-11-06T01:10:31.773Z,46.07
2018-11-06T01:13:00.182Z,38.23
2018-11-06T01:15:29.369Z,44.70
2018-11-06T01:17:57.912Z,41.10
2018-11-06T01:20:27.071Z,29.40
2018-11-06T01:22:55.777Z,32.50
2018-11-06T01:25:25.487Z,44.43
2018-11-06T01:27:54.796Z,55.80
2018-11-06T01:30:23.923Z,32.37
2018-11-06T01:32:52.451Z,45.73
2018-11-06T01:35:21.898Z,41.23
2018-11-06T01:37:50.279Z,34.10
2018-11-06T01:40:18.913Z,44.60
2018-11-06T01:42:48.220Z,32.70
2018-11-06T01:45:17.819Z,31.03
2018-11-06T01:47:46.244Z,33.23
2018-11-06T01:50:16.880Z,31.40
2018-11-06T01:52:46.896Z,29.97
2018-11-06T01:55:15.626Z,28.53
2018-11-06T01:57:44.125Z,29.03
2018-11-06T02:00:16.584Z,39.03
2018-11-06T02:02:46.023Z,42.60
2018-11-06T02:05:15.667Z,42.53
2018-11-06T02:07:45.572Z,51.10
2018-11-06T02:10:14.992Z,38.20
2018-11-06T02:12:44.796Z,31.50
2018-11-06T02:15:13.318Z,29.17
2018-11-06T02:17:43.444Z,27.27
2018-11-06T02:20:13.082Z,31.00
2018-11-06T02:22:42.772Z,30.80
2018-11-06T02:25:11.834Z,42.30
2018-11-06T02:27:41.059Z,42.40
2018-11-06T02:30:10.824Z,50.93
2018-11-06T02:32:40.812Z,48.43
2018-11-06T02:35:09.253Z,48.77
2018-11-06T02:37:38.146Z,61.20
2018-11-06T02:40:08.517Z,79.93
2018-11-06T02:42:56.642Z,67.80
2018-11-06T02:45:25.266Z,62.53
2018-11-06T02:47:53.894Z,69.67
2018-11-06T02:50:23.092Z,66.90
2018-11-06T02:52:51.590Z,69.27
2018-11-06T02:55:20.224Z,84.63
2018-11-06T02:57:49.052Z,78.07
2018-11-06T03:00:17.916Z,74.87
2018-11-06T03:02:47.484Z,62.40
2018-11-06T03:05:16.222Z,68.63
2018-11-06T03:07:44.651Z,77.80
2018-11-06T03:10:13.899Z,69.50
2018-11-06T03:12:42.983Z,81.97
2018-11-06T03:15:13.231Z,88.23
2018-11-06T03:17:42.851Z,80.10
2018-11-06T03:20:11.962Z,98.70
2018-11-06T03:22:40.804Z,105.17
2018-11-06T03:25:09.479Z,108.23
2018-11-06T03:27:37.998Z,101.43
2018-11-06T03:30:07.504Z,110.80
2018-11-06T03:32:36.224Z,116.73
2018-11-06T03:35:06.236Z,103.40
2018-11-06T03:37:34.651Z,107.00
2018-11-06T03:40:04.119Z,115.77
2018-11-06T03:42:32.748Z,118.20
2018-11-06T03:45:01.287Z,131.33
2018-11-06T03:47:29.895Z,126.27
2018-11-06T03:49:58.313Z,123.20
2018-11-06T03:52:26.742Z,122.13
2018-11-06T03:54:55.156Z,120.00
2018-11-06T03:57:23.581Z,120.30
2018-11-06T03:59:52.011Z,107.73
2018-11-06T04:02:21.317Z,113.20
2018-11-06T04:04:50.847Z,110.63
2018-11-06T04:07:19.328Z,110.03
2018-11-06T04:09:49.631Z,104.97
2018-11-06T04:12:23.227Z,104.57
2018-11-06T04:14:51.738Z,102.00
2018-11-06T04:17:20.143Z,105.97
2018-11-06T04:19:48.672Z,85.50
2018-11-06T04:22:18.087Z,92.50
2018-11-06T04:24:47.137Z,104.53
2018-11-06T04:27:15.822Z,98.00
2018-11-06T04:29:46.013Z,107.63
2018-11-06T04:32:14.864Z,89.93
2018-11-06T04:34:43.374Z,91.63
2018-11-06T04:37:12.666Z,82.07
2018-11-06T04:39:41.172Z,99.30
2018-11-06T04:42:09.723Z,127.93
2018-11-06T04:44:39.441Z,128.83
2018-11-06T04:47:10.907Z,167.17
2018-11-06T04:49:40.012Z,238.90
2018-11-06T04:52:08.543Z,361.00
2018-11-06T04:54:37.180Z,382.57
2018-11-06T04:57:05.912Z,311.57
2018-11-06T04:59:34.667Z,454.73
2018-11-06T05:02:03.271Z,458.07
2018-11-06T05:04:31.862Z,396.23
2018-11-06T05:07:00.496Z,462.10
2018-11-06T05:09:29.414Z,394.77
2018-11-06T05:11:58.706Z,243.17
2018-11-06T05:14:28.128Z,296.93
2018-11-06T05:16:56.559Z,329.70
2018-11-06T05:19:24.971Z,372.47
2018-11-06T05:21:54.299Z,180.37
2018-11-06T05:24:24.173Z,353.13
2018-11-06T05:26:52.557Z,229.50
2018-11-06T05:29:20.955Z,249.30
2018-11-06T05:31:54.488Z,425.57
2018-11-06T05:34:22.930Z,332.17
2018-11-06T05:36:51.351Z,488.40
2018-11-06T05:39:19.789Z,500.63
2018-11-06T05:41:49.488Z,275.67
2018-11-06T05:44:18.238Z,141.63
2018-11-06T05:46:46.872Z,352.03
2018-11-06T05:49:15.266Z,211.90
2018-11-06T05:51:43.747Z,304.37
2018-11-06T05:54:13.094Z,356.93
2018-11-06T05:56:41.517Z,349.30
2018-11-06T05:59:10.344Z,291.97
2018-11-06T06:01:38.799Z,262.17
2018-11-06T06:04:07.406Z,297.87
2018-11-06T06:06:36.635Z,158.33
2018-11-06T06:09:06.139Z,235.40
2018-11-06T06:11:34.567Z,346.90
2018-11-06T06:14:02.998Z,284.37
2018-11-06T06:16:31.677Z,242.00
2018-11-06T06:19:00.923Z,138.33
2018-11-06T06:21:29.530Z,291.53
2018-11-06T06:23:57.951Z,256.13
2018-11-06T06:26:27.003Z,185.77
2018-11-06T06:28:55.735Z,181.50
2018-11-06T06:31:24.178Z,156.97
2018-11-06T06:33:53.615Z,261.80
2018-11-06T06:36:22.280Z,213.10
2018-11-06T06:38:51.073Z,97.43
2018-11-06T06:41:19.488Z,194.07
2018-11-06T06:43:47.928Z,172.43
2018-11-06T06:46:16.498Z,121.57
2018-11-06T06:48:44.861Z,97.43
2018-11-06T06:51:13.428Z,158.63
2018-11-06T06:53:42.071Z,84.90
2018-11-06T06:56:10.724Z,87.10
2018-11-06T06:58:39.346Z,102.77
2018-11-06T07:01:08.063Z,96.70
2018-11-06T07:03:36.580Z,126.33
2018-11-06T07:06:05.612Z,82.03
2018-11-06T07:08:34.128Z,95.73
2018-11-06T07:17:53.526Z,75.53
2018-11-06T07:20:23.548Z,95.50
2018-11-06T07:22:52.519Z,100.57
2018-11-06T07:25:21.399Z,80.43
2018-11-06T07:27:49.800Z,129.10
2018-11-06T07:30:21.567Z,97.77
2018-11-06T07:32:50.295Z,128.07
2018-11-06T07:35:19.644Z,156.30
2018-11-06T07:37:49.290Z,113.40
2018-11-06T07:40:18.994Z,111.80
2018-11-06T07:42:47.435Z,103.50
2018-11-06T07:45:19.159Z,91.43
2018-11-06T07:47:47.891Z,93.70
2018-11-06T07:50:16.414Z,84.53
2018-11-06T07:52:45.336Z,101.70
2018-11-06T07:55:15.119Z,87.93
2018-11-06T07:57:43.519Z,81.27
2018-11-06T08:00:17.551Z,82.43
2018-11-06T08:02:47.055Z,80.80
2018-11-06T08:05:16.186Z,79.07
2018-11-06T08:07:45.389Z,78.70
2018-11-06T08:10:13.810Z,67.40
2018-11-06T08:12:43.538Z,74.73
2018-11-06T08:15:12.633Z,74.13
2018-11-06T08:17:41.805Z,72.90
2018-11-06T08:20:10.279Z,80.60
2018-11-06T08:22:38.986Z,74.27
2018-11-06T08:25:08.858Z,80.80
2018-11-06T08:27:37.664Z,87.07
2018-11-06T08:30:06.303Z,84.47
2018-11-06T08:32:35.145Z,68.63
2018-11-06T08:35:03.515Z,72.97
2018-11-06T08:37:31.968Z,65.43
2018-11-06T08:40:00.452Z,70.20
2018-11-06T08:42:28.930Z,63.47
2018-11-06T08:44:57.249Z,58.33
2018-11-06T08:47:25.651Z,54.97
2018-11-06T08:49:54.041Z,51.83
2018-11-06T08:52:22.463Z,49.43
2018-11-06T08:54:50.883Z,60.37
2018-11-06T08:57:19.263Z,51.87
2018-11-06T08:59:47.727Z,49.00
2018-11-06T09:02:16.138Z,47.33
2018-11-06T09:04:44.516Z,44.23
2018-11-06T09:07:12.926Z,42.27
2018-11-06T09:09:41.341Z,44.37
2018-11-06T09:12:09.744Z,37.53
2018-11-06T09:14:38.152Z,41.57
2018-11-06T09:17:06.622Z,36.43
2018-11-06T09:19:34.979Z,33.33
2018-11-06T09:22:03.370Z,29.93
2018-11-06T09:24:31.755Z,27.83
2018-11-06T09:27:00.163Z,26.90
2018-11-06T09:29:28.563Z,26.63
2018-11-06T09:31:56.973Z,25.10
2018-11-06T09:34:25.366Z,24.67
2018-11-06T09:36:53.783Z,24.63
2018-11-06T09:39:22.192Z,27.27
2018-11-06T09:41:50.584Z,26.67
2018-11-06T09:44:19.205Z,26.60
2018-11-06T09:46:47.677Z,25.83
2018-11-06T09:49:16.080Z,25.43
2018-11-06T09:51:44.500Z,25.03
2018-11-06T09:54:12.892Z,26.40
2018-11-06T09:56:41.283Z,26.33
2018-11-06T09:59:09.905Z,23.93
2018-11-06T10:01:38.395Z,27.57
2018-11-06T10:04:06.779Z,26.00
2018-11-06T10:06:35.308Z,25.00
2018-11-06T10:09:04.741Z,27.00
2018-11-06T10:11:33.107Z,28.73
2018-11-06T10:14:01.563Z,26.63
2018-11-06T10:16:29.971Z,25.93
2018-11-06T10:18:58.359Z,28.60
2018-11-06T10:21:26.855Z,32.70
2018-11-06T10:23:55.168Z,31.77
2018-11-06T10:26:23.591Z,29.23
2018-11-06T10:28:52.012Z,29.57
2018-11-06T10:31:20.629Z,29.53
2018-11-06T10:33:49.099Z,29.00
2018-11-06T10:36:17.665Z,28.77
2018-11-06T10:38:46.051Z,28.47
2018-11-06T10:41:14.447Z,27.53
2018-11-06T10:43:42.851Z,29.47
2018-11-06T10:46:11.257Z,29.20
2018-11-06T10:48:39.655Z,31.53
2018-11-06T10:51:08.271Z,31.97
2018-11-06T10:53:36.759Z,31.43
2018-11-06T10:56:05.147Z,33.53
2018-11-06T10:58:33.627Z,33.47
2018-11-06T11:01:07.588Z,32.40
2018-11-06T11:03:40.802Z,32.93
2018-11-06T11:06:09.204Z,32.30
2018-11-06T11:08:37.586Z,31.57
2018-11-06T11:11:05.995Z,28.73
2018-11-06T11:13:34.419Z,29.83
2018-11-06T11:16:02.815Z,31.07
2018-11-06T11:18:31.228Z,31.70
2018-11-06T11:20:59.719Z,32.13
2018-11-06T11:23:28.115Z,35.00
2018-11-06T11:25:56.512Z,32.97
2018-11-06T11:28:24.907Z,34.67
2018-11-06T11:30:53.291Z,33.03
2018-11-06T11:33:21.698Z,30.13
2018-11-06T11:35:50.084Z,36.53
2018-11-06T11:38:18.475Z,34.30
2018-11-06T11:40:47.104Z,35.30
2018-11-06T11:43:15.591Z,37.30
2018-11-06T11:45:44.032Z,37.20
2018-11-06T11:48:12.370Z,35.50
2018-11-06T11:50:40.759Z,35.07
2018-11-06T11:53:09.147Z,36.27
2018-11-06T11:55:37.559Z,37.13
2018-11-06T11:58:05.943Z,34.30
2018-11-06T12:00:37.488Z,32.57
2018-11-06T12:03:06.290Z,40.67
2018-11-06T12:05:34.688Z,38.87
2018-11-06T12:08:03.071Z,41.63
2018-11-06T12:10:31.476Z,43.13
2018-11-06T12:12:59.873Z,41.87
2018-11-06T12:15:28.264Z,42.00
2018-11-06T12:17:56.679Z,37.90
2018-11-06T12:20:30.095Z,37.53
2018-11-06T12:22:58.503Z,40.07
2018-11-06T12:25:27.049Z,41.37
2018-11-06T12:27:55.300Z,43.30
2018-11-06T12:30:23.698Z,41.83
2018-11-06T12:32:52.312Z,44.27
2018-11-06T12:35:20.796Z,42.57
2018-11-06T12:37:49.755Z,29.93
2018-11-06T12:40:18.372Z,43.67
2018-11-06T12:42:46.951Z,45.23
2018-11-06T12:45:16.414Z,41.70
2018-11-06T12:47:45.408Z,41.00
2018-11-06T12:50:13.883Z,46.20
2018-11-06T12:52:42.463Z,50.37
2018-11-06T12:55:12.783Z,43.03
2018-11-06T12:57:41.174Z,40.67
2018-11-06T13:00:11.000Z,46.20
2018-11-06T13:02:39.391Z,48.27
2018-11-06T13:05:08.040Z,41.90
2018-11-06T13:07:37.128Z,43.30
2018-11-06T13:10:05.704Z,43.13
2018-11-06T13:12:34.028Z,40.63
2018-11-06T13:15:02.659Z,41.60
2018-11-06T13:17:31.208Z,44.50
2018-11-06T13:19:59.645Z,46.63
2018-11-06T13:22:28.293Z,42.13
2018-11-06T13:24:56.687Z,48.30
2018-11-06T13:27:25.077Z,39.63
2018-11-06T13:29:53.494Z,43.57
2018-11-06T13:32:21.940Z,41.67
2018-11-06T13:34:50.284Z,42.93
2018-11-06T13:37:18.692Z,45.23
2018-11-06T13:39:47.083Z,43.93
2018-11-06T13:42:15.548Z,41.47
2018-11-06T13:44:44.206Z,43.93
2018-11-06T13:47:12.282Z,41.90
2018-11-06T13:49:40.676Z,43.60
2018-11-06T13:52:09.127Z,46.60
2018-11-06T13:54:37.473Z,43.97
2018-11-06T13:57:05.868Z,44.50
2018-11-06T13:59:34.293Z,50.27
2018-11-06T14:02:02.679Z,45.20
2018-11-06T14:04:31.064Z,43.47
2018-11-06T14:06:59.511Z,44.60
2018-11-06T14:09:27.900Z,45.60
2018-11-06T14:11:56.515Z,42.57
2018-11-06T14:14:25.019Z,44.50
2018-11-06T14:16:53.448Z,46.70
2018-11-06T14:19:21.836Z,45.17
2018-11-06T14:21:50.259Z,45.90
2018-11-06T14:24:18.869Z,45.67
2018-11-06T14:26:47.365Z,45.73
2018-11-06T14:29:15.755Z,44.53
2018-11-06T14:31:44.199Z,45.17
2018-11-06T14:34:12.545Z,46.80
2018-11-06T14:36:40.948Z,45.20
2018-11-06T14:39:09.335Z,44.83
2018-11-06T14:41:37.785Z,42.93
2018-11-06T14:44:06.290Z,44.80
2018-11-06T14:46:34.679Z,44.53
2018-11-06T14:49:03.176Z,48.30
2018-11-06T14:51:31.479Z,46.30
2018-11-06T14:53:59.884Z,47.93
2018-11-06T14:56:28.260Z,47.27
2018-11-06T14:58:56.668Z,46.47
2018-11-06T15:01:25.055Z,44.77
2018-11-06T15:03:53.447Z,43.33
2018-11-06T15:06:21.859Z,43.47
2018-11-06T15:08:50.256Z,45.90
2018-11-06T15:11:18.638Z,45.37
2018-11-06T15:13:47.059Z,47.20
2018-11-06T15:16:15.463Z,43.60
2018-11-06T15:18:43.848Z,44.63
2018-11-06T15:21:12.251Z,38.87
2018-11-06T15:23:40.867Z,44.60
2018-11-06T15:26:09.360Z,44.07
2018-11-06T15:28:37.828Z,47.20
2018-11-06T15:31:06.543Z,37.70
2018-11-06T15:33:35.046Z,45.60
2018-11-06T15:36:03.443Z,50.43
2018-11-06T15:38:31.831Z,46.13
2018-11-06T15:41:00.342Z,48.33
2018-11-06T15:43:28.876Z,47.27
2018-11-06T15:45:57.360Z,45.17
2018-11-06T15:48:25.786Z,43.53
2018-11-06T15:50:54.137Z,49.20
2018-11-06T15:53:22.528Z,51.70
2018-11-06T15:55:50.915Z,47.43
2018-11-06T15:58:19.337Z,49.30
2018-11-06T16:00:48.624Z,46.43
2018-11-06T16:03:17.235Z,46.47
2018-11-06T16:05:45.777Z,45.67
2018-11-06T16:08:14.184Z,47.90
2018-11-06T16:10:42.569Z,47.33
2018-11-06T16:13:10.983Z,48.20
2018-11-06T16:15:39.380Z,43.60
2018-11-06T16:18:07.777Z,43.63
2018-11-06T16:20:46.291Z,44.93
2018-11-06T16:23:14.651Z,41.67
2018-11-06T16:25:43.275Z,43.70
2018-11-06T16:28:11.791Z,36.67
2018-11-06T16:30:40.439Z,38.70
2018-11-06T16:33:08.923Z,41.37
2018-11-06T16:35:37.342Z,36.97
2018-11-06T16:38:05.727Z,37.90
2018-11-06T16:40:34.132Z,42.33
2018-11-06T16:43:02.557Z,42.57
2018-11-06T16:45:31.173Z,44.83
2018-11-06T16:47:59.650Z,46.43
2018-11-06T16:50:28.073Z,49.87
2018-11-06T16:52:56.469Z,44.57
2018-11-06T16:55:24.859Z,44.13
2018-11-06T16:57:53.265Z,38.20
2018-11-06T17:00:23.481Z,46.57
2018-11-06T17:02:51.677Z,47.67
2018-11-06T17:05:20.314Z,49.00
2018-11-06T17:07:49.541Z,48.73
2018-11-06T17:10:18.572Z,40.97
2018-11-06T17:12:46.975Z,37.47
2018-11-06T17:15:17.577Z,38.30
2018-11-06T17:17:46.746Z,36.83
2018-11-06T17:20:15.588Z,39.30
2018-11-06T17:22:43.988Z,43.03
2018-11-06T17:25:15.608Z,47.97
2018-11-06T17:27:44.037Z,41.13
2018-11-06T17:30:13.751Z,43.20
2018-11-06T17:32:42.500Z,38.80
2018-11-06T17:35:11.856Z,53.00
2018-11-06T17:37:40.565Z,53.57
2018-11-06T17:40:11.248Z,56.80
2018-11-06T17:42:40.039Z,49.43
2018-11-06T17:45:10.953Z,49.03
2018-11-06T17:47:39.851Z,43.63
2018-11-06T17:50:09.126Z,68.90
2018-11-06T17:52:37.583Z,74.77
2018-11-06T17:55:06.311Z,88.63
2018-11-06T17:57:34.987Z,81.67
2018-11-06T18:00:03.448Z,59.00
2018-11-06T18:02:31.907Z,48.33
2018-11-06T18:05:00.544Z,48.43
2018-11-06T18:07:29.252Z,45.63
2018-11-06T18:09:57.736Z,48.03
2018-11-06T18:12:26.151Z,45.87
2018-11-06T18:14:54.536Z,44.93
2018-11-06T18:17:23.768Z,41.17
2018-11-06T18:19:52.148Z,49.93
2018-11-06T18:22:20.563Z,43.53
2018-11-06T18:24:48.976Z,49.37
2018-11-06T18:27:17.389Z,45.77
2018-11-06T18:29:45.800Z,43.40
2018-11-06T18:32:14.256Z,45.53
2018-11-06T18:34:42.599Z,53.83
2018-11-06T18:37:10.999Z,52.63
2018-11-06T18:39:39.391Z,58.30
2018-11-06T18:42:08.040Z,67.53
2018-11-06T18:44:36.649Z,64.17
2018-11-06T18:47:05.638Z,63.27
2018-11-06T18:49:34.131Z,55.63
2018-11-06T18:52:02.522Z,49.47
2018-11-06T18:54:31.136Z,47.73
2018-11-06T18:56:59.638Z,42.37
2018-11-06T18:59:28.040Z,43.07
2018-11-06T19:01:56.428Z,40.47
2018-11-06T19:04:25.329Z,40.53
2018-11-06T19:06:53.747Z,44.93
2018-11-06T19:09:22.143Z,35.60
2018-11-06T19:11:50.548Z,43.50
2018-11-06T19:14:18.952Z,56.60
2018-11-06T19:16:47.359Z,44.20
2018-11-06T19:19:15.760Z,45.30
2018-11-06T19:21:44.404Z,45.70
2018-11-06T19:24:13.208Z,44.97
2018-11-06T19:26:41.636Z,45.53
2018-11-06T19:31:53.323Z,48.43
2018-11-06T19:34:21.703Z,44.77
2018-11-06T19:36:50.108Z,40.07
2018-11-06T19:39:18.520Z,38.20
2018-11-06T19:41:46.918Z,35.83
2018-11-06T19:44:15.313Z,52.03
2018-11-06T19:46:43.735Z,35.60
2018-11-06T19:49:12.136Z,40.03
2018-11-06T19:51:40.540Z,32.97
2018-11-06T19:54:08.982Z,34.50
2018-11-06T19:56:37.383Z,35.53
2018-11-06T19:59:05.759Z,34.40
2018-11-06T20:01:34.220Z,34.70
2018-11-06T20:04:02.618Z,34.63
2018-11-06T20:06:31.012Z,28.97
2018-11-06T20:08:59.697Z,32.40
2018-11-06T20:11:28.180Z,31.97
2018-11-06T20:13:56.839Z,30.80
2018-11-06T20:16:25.245Z,30.33
2018-11-06T20:18:53.639Z,28.97
2018-11-06T20:21:22.069Z,32.37
2018-11-06T20:23:50.438Z,32.13
2018-11-06T20:26:18.852Z,141.57
2018-11-06T20:28:47.260Z,154.27
2018-11-06T20:31:15.688Z,103.40
2018-11-06T20:33:44.317Z,82.10
2018-11-06T20:36:13.480Z,67.00
2018-11-06T20:38:41.894Z,62.03
2018-11-06T20:41:10.297Z,60.37
2018-11-06T20:43:38.680Z,55.23
2018-11-06T20:46:07.126Z,62.03
2018-11-06T20:48:35.504Z,91.67
2018-11-06T20:51:03.899Z,52.90
2018-11-06T20:53:32.388Z,55.83
2018-11-06T20:56:00.770Z,55.73
2018-11-06T20:58:29.203Z,72.20
2018-11-06T21:00:57.858Z,51.87
2018-11-06T21:03:26.239Z,75.60
2018-11-06T21:05:54.641Z,100.60
2018-11-06T21:08:23.030Z,43.87
2018-11-06T21:10:51.513Z,43.23
2018-11-06T21:13:19.935Z,40.47
2018-11-06T21:15:48.246Z,32.03
2018-11-06T21:18:16.652Z,34.37
2018-11-06T21:20:45.044Z,29.07
2018-11-06T21:23:13.459Z,27.60
2018-11-06T21:25:42.171Z,29.93
2018-11-06T21:28:10.234Z,35.67
2018-11-06T21:30:38.660Z,33.20
2018-11-06T21:33:07.052Z,31.23
2018-11-06T21:35:35.467Z,33.40
2018-11-06T21:38:03.871Z,32.73
2018-11-06T21:40:32.287Z,34.57
2018-11-06T21:43:00.671Z,33.33
2018-11-06T21:45:29.121Z,33.90
2018-11-06T21:47:57.476Z,33.33
2018-11-06T21:50:25.865Z,30.07
2018-11-06T21:52:54.285Z,29.87
2018-11-06T21:55:22.678Z,38.33
2018-11-06T21:57:51.067Z,32.77
2018-11-06T22:00:20.594Z,34.03
2018-11-06T22:02:48.963Z,37.00
2018-11-06T22:05:18.647Z,34.77
2018-11-06T22:07:47.177Z,31.47
2018-11-06T22:10:16.900Z,46.43
2018-11-06T22:12:45.665Z,68.23
2018-11-06T22:15:15.174Z,86.10
2018-11-06T22:17:43.579Z,34.43
2018-11-06T22:20:14.087Z,75.77
2018-11-06T22:22:43.489Z,54.43
2018-11-06T22:25:11.884Z,82.47
2018-11-06T22:27:40.276Z,76.80
2018-11-06T22:30:09.586Z,54.30
2018-11-06T22:32:38.148Z,80.33
2018-11-06T22:35:07.114Z,45.77
2018-11-06T22:37:35.532Z,58.93
2018-11-06T22:40:03.937Z,31.60
2018-11-06T22:42:32.327Z,45.00
2018-11-06T22:45:00.731Z,31.10
2018-11-06T22:47:29.350Z,28.17
2018-11-06T22:49:57.823Z,25.83
2018-11-06T22:52:26.236Z,27.53
2018-11-06T22:54:54.627Z,23.57
2018-11-06T22:57:23.016Z,26.03
2018-11-06T22:59:51.423Z,22.87
2018-11-06T23:02:19.822Z,22.70
2018-11-06T23:04:48.211Z,23.07
2018-11-06T23:07:22.014Z,25.10
2018-11-06T23:09:50.400Z,27.27
2018-11-06T23:12:18.803Z,34.47
2018-11-06T23:14:47.223Z,32.57
2018-11-06T23:17:15.642Z,34.20
2018-11-06T23:19:44.176Z,33.63
2018-11-06T23:22:12.577Z,26.13
2018-11-06T23:24:40.983Z,36.90
2018-11-06T23:27:09.379Z,48.10
2018-11-06T23:29:37.792Z,25.83
2018-11-06T23:32:06.189Z,78.27
2018-11-06T23:34:34.579Z,60.23
2018-11-06T23:37:03.063Z,29.27
2018-11-06T23:39:31.479Z,50.13
2018-11-06T23:41:59.921Z,37.77
2018-11-06T23:44:28.286Z,31.17
2018-11-06T23:46:56.684Z,33.57
2018-11-06T23:49:25.073Z,36.07
2018-11-06T23:51:53.571Z,27.50
2018-11-06T23:54:21.966Z,25.83
2018-11-06T23:56:50.347Z,26.90
2018-11-06T23:59:18.972Z,27.57
